Time;durP1;ratioP1;P1;durP2;ratioP2;P2;SDS_P1;SDS_P2;PMS_P1;PMS_P2;Temp;Humidity;BMP_temperature;BMP_pressure;BME280_temperature;BME280_humidity;BME280_pressure;Samples;Min_cycle;Max_cycle;Signal;HPM_P1;HPM_P2
2023/10/26 00:02:17;;;;;;;29.10;18.47;;;;;;;;;;2611277;39;20493;-77
2023/10/26 00:04:43;;;;;;;39.40;21.90;;;;;;;;;;2611591;54;20554;-77
2023/10/26 00:07:09;;;;;;;37.47;23.20;;;;;;;;;;2612190;54;20988;-74
2023/10/26 00:09:35;;;;;;;31.93;19.83;;;;;;;;;;2611745;54;20418;-74
2023/10/26 00:12:02;;;;;;;37.20;22.30;;;;;;;;;;2611721;39;20764;-73
2023/10/26 00:14:28;;;;;;;36.50;22.60;;;;;;;;;;2610814;39;20859;-73
2023/10/26 00:16:55;;;;;;;39.10;22.17;;;;;;;;;;2611042;54;20384;-74
2023/10/26 00:19:21;;;;;;;35.10;21.37;;;;;;;;;;2611577;54;20395;-75
2023/10/26 00:21:47;;;;;;;42.03;22.87;;;;;;;;;;2611236;46;20433;-73
2023/10/26 00:24:13;;;;;;;30.83;19.80;;;;;;;;;;2610365;54;20411;-74
2023/10/26 00:26:40;;;;;;;43.80;23.40;;;;;;;;;;2610892;54;20457;-73
2023/10/26 00:29:06;;;;;;;34.07;19.53;;;;;;;;;;2611501;54;20423;-74
2023/10/26 00:31:32;;;;;;;34.10;20.40;;;;;;;;;;2610689;54;21229;-75
2023/10/26 00:33:58;;;;;;;32.47;22.13;;;;;;;;;;2611497;54;20424;-75
2023/10/26 00:36:24;;;;;;;34.47;20.37;;;;;;;;;;2611910;39;20819;-74
2023/10/26 00:38:50;;;;;;;35.10;21.57;;;;;;;;;;2610048;47;20803;-76
2023/10/26 00:41:16;;;;;;;31.83;21.17;;;;;;;;;;2610061;54;20407;-75
2023/10/26 00:43:43;;;;;;;30.83;20.33;;;;;;;;;;2611936;54;20966;-75
2023/10/26 00:46:10;;;;;;;35.50;19.10;;;;;;;;;;2611302;54;20395;-76
2023/10/26 00:48:37;;;;;;;36.20;20.00;;;;;;;;;;2611844;54;20453;-76
2023/10/26 00:51:03;;;;;;;34.57;21.10;;;;;;;;;;2611692;47;20427;-75
2023/10/26 00:53:29;;;;;;;33.10;19.87;;;;;;;;;;2612469;39;20794;-76
2023/10/26 00:55:56;;;;;;;27.10;18.30;;;;;;;;;;2611541;54;20404;-75
2023/10/26 00:58:22;;;;;;;31.90;19.77;;;;;;;;;;2611894;54;20980;-75
2023/10/26 01:00:48;;;;;;;32.70;18.40;;;;;;;;;;2611488;54;20423;-75
2023/10/26 01:03:15;;;;;;;33.33;19.97;;;;;;;;;;2611455;54;20954;-76
2023/10/26 01:05:41;;;;;;;30.77;20.23;;;;;;;;;;2611770;54;20443;-76
2023/10/26 01:08:07;;;;;;;27.93;16.53;;;;;;;;;;2611106;54;20962;-75
2023/10/26 01:10:35;;;;;;;26.23;17.87;;;;;;;;;;2611979;54;20400;-76
2023/10/26 01:13:01;;;;;;;31.17;21.00;;;;;;;;;;2612193;54;20404;-76
2023/10/26 01:15:27;;;;;;;27.20;18.57;;;;;;;;;;2611400;47;20446;-77
2023/10/26 01:17:53;;;;;;;27.33;16.57;;;;;;;;;;2612312;54;20431;-76
2023/10/26 01:20:19;;;;;;;21.27;15.43;;;;;;;;;;2612286;54;20430;-73
2023/10/26 01:22:45;;;;;;;29.70;18.10;;;;;;;;;;2611775;47;20434;-73
2023/10/26 01:25:11;;;;;;;26.20;15.50;;;;;;;;;;2612001;54;20462;-74
2023/10/26 01:27:38;;;;;;;25.50;15.40;;;;;;;;;;2612632;54;20390;-75
2023/10/26 01:30:05;;;;;;;23.87;15.13;;;;;;;;;;2612271;54;20416;-74
2023/10/26 01:32:31;;;;;;;25.53;16.50;;;;;;;;;;2612480;54;20514;-74
2023/10/26 01:34:57;;;;;;;22.80;15.10;;;;;;;;;;2612015;47;20403;-74
2023/10/26 01:37:23;;;;;;;25.73;16.07;;;;;;;;;;2612065;54;20519;-74
2023/10/26 01:39:49;;;;;;;23.77;15.90;;;;;;;;;;2612226;54;20539;-73
2023/10/26 01:42:15;;;;;;;27.90;14.83;;;;;;;;;;2611943;39;21080;-74
2023/10/26 01:44:43;;;;;;;27.07;16.00;;;;;;;;;;2611842;54;20969;-75
2023/10/26 01:47:11;;;;;;;24.43;16.67;;;;;;;;;;2612038;54;21310;-75
2023/10/26 01:49:37;;;;;;;20.63;14.33;;;;;;;;;;2611959;54;20969;-74
2023/10/26 01:52:03;;;;;;;25.03;16.60;;;;;;;;;;2611399;46;20438;-73
2023/10/26 01:54:29;;;;;;;26.77;17.47;;;;;;;;;;2612109;54;20557;-75
2023/10/26 01:56:55;;;;;;;22.97;16.27;;;;;;;;;;2611877;54;20387;-75
2023/10/26 01:59:21;;;;;;;26.87;18.20;;;;;;;;;;2611202;51;20531;-75
2023/10/26 02:01:47;;;;;;;25.27;17.10;;;;;;;;;;2611652;54;21269;-73
2023/10/26 02:04:13;;;;;;;29.50;19.70;;;;;;;;;;2611496;54;20395;-75
2023/10/26 02:06:40;;;;;;;27.13;17.20;;;;;;;;;;2611873;54;20396;-73
2023/10/26 02:09:06;;;;;;;28.37;19.03;;;;;;;;;;2611304;54;20415;-74
2023/10/26 02:11:32;;;;;;;29.77;18.50;;;;;;;;;;2611562;54;20542;-74
2023/10/26 02:13:58;;;;;;;27.63;19.73;;;;;;;;;;2612031;54;20519;-74
2023/10/26 02:16:24;;;;;;;25.83;17.77;;;;;;;;;;2612418;54;20404;-75
2023/10/26 02:18:50;;;;;;;23.47;18.27;;;;;;;;;;2612212;54;20506;-73
2023/10/26 02:21:16;;;;;;;29.80;19.23;;;;;;;;;;2612039;54;21108;-74
2023/10/26 02:23:42;;;;;;;30.70;20.70;;;;;;;;;;2611934;54;20408;-73
2023/10/26 02:26:08;;;;;;;34.30;19.10;;;;;;;;;;2611230;46;20487;-74
2023/10/26 02:28:34;;;;;;;33.20;18.40;;;;;;;;;;2612214;47;20435;-74
2023/10/26 02:31:01;;;;;;;27.93;19.40;;;;;;;;;;2611421;54;20424;-76
2023/10/26 02:33:27;;;;;;;30.83;17.23;;;;;;;;;;2612471;54;20411;-76
2023/10/26 02:35:53;;;;;;;26.43;19.13;;;;;;;;;;2611477;54;20404;-76
2023/10/26 02:38:19;;;;;;;30.97;18.50;;;;;;;;;;2612199;54;20430;-76
2023/10/26 02:40:45;;;;;;;23.40;15.47;;;;;;;;;;2612636;54;20388;-76
2023/10/26 02:43:11;;;;;;;28.70;19.20;;;;;;;;;;2611872;47;20471;-76
2023/10/26 02:45:37;;;;;;;30.50;20.53;;;;;;;;;;2611580;54;20514;-75
2023/10/26 02:48:03;;;;;;;25.10;17.50;;;;;;;;;;2612123;54;20434;-75
2023/10/26 02:50:29;;;;;;;31.03;20.33;;;;;;;;;;2611624;47;20423;-75
2023/10/26 02:52:55;;;;;;;30.50;19.20;;;;;;;;;;2612587;54;20846;-75
2023/10/26 02:55:22;;;;;;;32.27;20.23;;;;;;;;;;2612677;54;20558;-76
2023/10/26 02:57:48;;;;;;;29.80;20.40;;;;;;;;;;2611722;51;20435;-74
2023/10/26 03:00:16;;;;;;;28.77;18.73;;;;;;;;;;2611960;54;20419;-74
2023/10/26 03:02:42;;;;;;;29.10;21.40;;;;;;;;;;2612007;54;20982;-75
2023/10/26 03:05:08;;;;;;;29.47;21.40;;;;;;;;;;2612177;54;20391;-75
2023/10/26 03:07:35;;;;;;;30.53;20.17;;;;;;;;;;2611541;54;20415;-75
2023/10/26 03:10:01;;;;;;;36.70;18.73;;;;;;;;;;2612567;54;20404;-75
2023/10/26 03:12:27;;;;;;;29.73;20.17;;;;;;;;;;2612752;54;21243;-75
2023/10/26 03:14:53;;;;;;;35.50;24.40;;;;;;;;;;2612332;54;20419;-75
2023/10/26 03:17:19;;;;;;;35.47;23.20;;;;;;;;;;2611137;46;20574;-75
2023/10/26 03:19:45;;;;;;;29.03;18.70;;;;;;;;;;2612429;54;20426;-76
2023/10/26 03:22:11;;;;;;;30.30;20.97;;;;;;;;;;2612123;54;20396;-75
2023/10/26 03:24:38;;;;;;;34.40;21.67;;;;;;;;;;2612189;54;20438;-75
2023/10/26 03:27:04;;;;;;;37.50;24.30;;;;;;;;;;2612246;54;20423;-74
2023/10/26 03:29:30;;;;;;;36.67;22.57;;;;;;;;;;2612293;54;20399;-74
2023/10/26 03:31:57;;;;;;;32.20;19.77;;;;;;;;;;2612140;54;20403;-75
2023/10/26 03:34:23;;;;;;;34.47;21.07;;;;;;;;;;2612385;54;20419;-75
2023/10/26 03:36:49;;;;;;;26.27;17.73;;;;;;;;;;2612190;54;20454;-75
2023/10/26 03:39:15;;;;;;;28.17;15.10;;;;;;;;;;2611982;54;20992;-74
2023/10/26 03:41:42;;;;;;;29.80;18.17;;;;;;;;;;2612475;54;20392;-73
2023/10/26 03:44:08;;;;;;;25.03;17.60;;;;;;;;;;2612184;39;20847;-74
2023/10/26 03:46:34;;;;;;;31.20;19.57;;;;;;;;;;2612211;54;20383;-74
2023/10/26 03:49:00;;;;;;;28.47;20.00;;;;;;;;;;2611564;54;20395;-74
2023/10/26 03:51:26;;;;;;;34.53;20.33;;;;;;;;;;2611359;54;20988;-73
2023/10/26 03:53:52;;;;;;;36.57;19.90;;;;;;;;;;2611452;54;20455;-73
2023/10/26 03:56:18;;;;;;;30.67;19.77;;;;;;;;;;2611703;54;20419;-74
2023/10/26 03:58:44;;;;;;;31.43;21.60;;;;;;;;;;2612450;54;20404;-73
2023/10/26 04:01:11;;;;;;;34.30;21.70;;;;;;;;;;2611652;54;20586;-73
2023/10/26 04:03:37;;;;;;;37.53;20.97;;;;;;;;;;2612002;54;20519;-73
2023/10/26 04:06:03;;;;;;;26.03;16.57;;;;;;;;;;2611974;54;20431;-74
2023/10/26 04:08:29;;;;;;;30.80;21.50;;;;;;;;;;2612158;54;20599;-74
2023/10/26 04:10:55;;;;;;;32.27;20.13;;;;;;;;;;2612842;54;20387;-73
2023/10/26 04:13:21;;;;;;;30.10;19.50;;;;;;;;;;2611747;54;20432;-74
2023/10/26 04:15:49;;;;;;;31.57;21.20;;;;;;;;;;2611731;54;20396;-72
2023/10/26 04:18:15;;;;;;;31.47;19.17;;;;;;;;;;2611993;54;20432;-73
2023/10/26 04:20:41;;;;;;;32.37;21.20;;;;;;;;;;2611256;47;20446;-74
2023/10/26 04:23:07;;;;;;;32.73;20.30;;;;;;;;;;2611308;54;20490;-74
2023/10/26 04:25:33;;;;;;;34.67;20.90;;;;;;;;;;2612238;54;20427;-74
2023/10/26 04:27:59;;;;;;;29.73;20.87;;;;;;;;;;2611363;54;20410;-74
2023/10/26 04:30:25;;;;;;;27.13;18.87;;;;;;;;;;2611643;39;21073;-73
2023/10/26 04:32:52;;;;;;;34.70;21.10;;;;;;;;;;2611100;54;20466;-74
2023/10/26 04:35:19;;;;;;;30.10;20.97;;;;;;;;;;2611987;54;20471;-74
2023/10/26 04:37:45;;;;;;;34.10;19.33;;;;;;;;;;2612044;47;20408;-74
2023/10/26 04:40:11;;;;;;;30.80;22.30;;;;;;;;;;2612580;54;20575;-73
2023/10/26 04:42:37;;;;;;;29.73;20.27;;;;;;;;;;2611448;54;20414;-75
2023/10/26 04:45:04;;;;;;;32.60;21.70;;;;;;;;;;2611879;54;20410;-73
2023/10/26 04:47:30;;;;;;;30.83;20.73;;;;;;;;;;2610862;47;20422;-74
2023/10/26 04:49:56;;;;;;;31.93;20.83;;;;;;;;;;2612218;54;20535;-74
2023/10/26 04:52:22;;;;;;;32.30;20.00;;;;;;;;;;2612020;54;20443;-74
2023/10/26 04:54:48;;;;;;;26.77;18.27;;;;;;;;;;2611407;47;20414;-74
2023/10/26 04:57:14;;;;;;;32.10;22.20;;;;;;;;;;2611904;54;20396;-74
2023/10/26 04:59:40;;;;;;;31.33;19.33;;;;;;;;;;2611801;54;20423;-75
2023/10/26 05:02:06;;;;;;;28.90;19.13;;;;;;;;;;2611920;54;20435;-74
2023/10/26 05:04:32;;;;;;;34.70;22.27;;;;;;;;;;2610879;54;20516;-74
2023/10/26 05:06:58;;;;;;;31.30;21.60;;;;;;;;;;2612640;54;20424;-75
2023/10/26 05:09:24;;;;;;;34.07;22.67;;;;;;;;;;2612075;54;20403;-74
2023/10/26 05:11:51;;;;;;;38.20;23.60;;;;;;;;;;2611522;54;20407;-75
2023/10/26 05:14:18;;;;;;;33.33;21.90;;;;;;;;;;2612446;54;20798;-77
2023/10/26 05:16:44;;;;;;;32.30;20.23;;;;;;;;;;2612909;54;20394;-77
2023/10/26 05:19:10;;;;;;;30.53;19.27;;;;;;;;;;2614197;54;20518;-81
2023/10/26 05:21:36;;;;;;;32.40;20.87;;;;;;;;;;2612442;47;20428;-75
2023/10/26 05:24:03;;;;;;;31.80;19.10;;;;;;;;;;2611430;54;20428;-75
2023/10/26 05:26:29;;;;;;;36.57;23.40;;;;;;;;;;2609819;47;20442;-76
2023/10/26 05:28:55;;;;;;;37.93;23.17;;;;;;;;;;2610506;47;20391;-76
2023/10/26 05:31:21;;;;;;;35.23;21.30;;;;;;;;;;2610610;47;20903;-76
2023/10/26 05:33:47;;;;;;;37.50;20.90;;;;;;;;;;2613479;54;20392;-76
2023/10/26 05:36:15;;;;;;;39.23;22.27;;;;;;;;;;2613616;54;20586;-76
2023/10/26 05:38:41;;;;;;;41.60;24.57;;;;;;;;;;2613169;39;20926;-75
2023/10/26 05:41:07;;;;;;;44.93;25.93;;;;;;;;;;2614070;54;20454;-76
2023/10/26 05:43:33;;;;;;;43.47;26.90;;;;;;;;;;2613634;54;20502;-76
2023/10/26 05:46:03;;;;;;;51.80;27.70;;;;;;;;;;2613267;54;20420;-81
2023/10/26 05:48:31;;;;;;;50.20;29.90;;;;;;;;;;2614561;54;20416;-78
2023/10/26 05:50:57;;;;;;;52.47;30.43;;;;;;;;;;2613131;47;20419;-77
2023/10/26 05:53:23;;;;;;;50.67;28.40;;;;;;;;;;2613771;54;20938;-77
2023/10/26 05:55:57;;;;;;;48.53;27.00;;;;;;;;;;2613310;39;20790;-78
2023/10/26 05:58:23;;;;;;;53.27;29.17;;;;;;;;;;2613194;54;20972;-76
2023/10/26 06:00:49;;;;;;;54.10;31.13;;;;;;;;;;2611378;54;21322;-75
2023/10/26 06:03:15;;;;;;;51.07;30.17;;;;;;;;;;2611027;54;20407;-75
2023/10/26 06:05:41;;;;;;;54.63;32.10;;;;;;;;;;2612504;54;20579;-75
2023/10/26 06:08:07;;;;;;;53.90;30.07;;;;;;;;;;2612800;47;20407;-75
2023/10/26 06:10:33;;;;;;;62.23;33.13;;;;;;;;;;2612657;47;20478;-75
2023/10/26 06:12:59;;;;;;;54.70;31.70;;;;;;;;;;2613507;39;20786;-76
2023/10/26 06:15:26;;;;;;;57.07;33.97;;;;;;;;;;2613550;54;20498;-75
2023/10/26 06:17:52;;;;;;;56.40;32.50;;;;;;;;;;2613778;39;20839;-76
2023/10/26 06:20:18;;;;;;;53.43;29.70;;;;;;;;;;2613575;54;20989;-75
2023/10/26 06:22:44;;;;;;;51.90;29.20;;;;;;;;;;2614106;54;20399;-74
2023/10/26 06:25:10;;;;;;;49.37;29.43;;;;;;;;;;2613092;47;20391;-75
2023/10/26 06:27:36;;;;;;;59.20;31.57;;;;;;;;;;2613659;54;20445;-74
2023/10/26 06:30:03;;;;;;;54.23;31.10;;;;;;;;;;2612699;54;20536;-74
2023/10/26 06:32:29;;;;;;;66.30;31.00;;;;;;;;;;2612402;54;20538;-75
2023/10/26 06:34:56;;;;;;;45.77;29.33;;;;;;;;;;2613619;47;20411;-74
2023/10/26 06:37:23;;;;;;;61.17;33.43;;;;;;;;;;2613627;39;20514;-74
2023/10/26 06:39:49;;;;;;;54.93;29.10;;;;;;;;;;2614548;31;20878;-74
2023/10/26 06:42:15;;;;;;;56.83;30.07;;;;;;;;;;2613248;47;20420;-75
2023/10/26 06:44:41;;;;;;;57.63;34.30;;;;;;;;;;2613004;54;20429;-75
2023/10/26 06:47:07;;;;;;;55.37;32.87;;;;;;;;;;2613919;54;20964;-75
2023/10/26 06:49:33;;;;;;;49.23;28.10;;;;;;;;;;2613982;54;20402;-74
2023/10/26 06:51:59;;;;;;;57.10;31.53;;;;;;;;;;2613903;54;20420;-75
2023/10/26 06:54:25;;;;;;;52.37;28.70;;;;;;;;;;2614177;54;20526;-74
2023/10/26 06:56:51;;;;;;;49.97;28.37;;;;;;;;;;2613330;39;20882;-74
2023/10/26 06:59:17;;;;;;;57.23;29.17;;;;;;;;;;2614428;46;20530;-74
2023/10/26 07:01:44;;;;;;;63.57;31.30;;;;;;;;;;2612367;47;20568;-75
2023/10/26 07:04:10;;;;;;;56.93;31.00;;;;;;;;;;2612598;54;20538;-75
2023/10/26 07:06:36;;;;;;;60.83;29.73;;;;;;;;;;2613427;54;20419;-73
2023/10/26 07:09:03;;;;;;;60.67;30.60;;;;;;;;;;2609705;39;20877;-74
2023/10/26 07:11:29;;;;;;;54.50;31.03;;;;;;;;;;2613368;39;20769;-75
2023/10/26 07:13:55;;;;;;;58.30;30.40;;;;;;;;;;2613555;54;21124;-74
2023/10/26 07:16:21;;;;;;;52.40;31.20;;;;;;;;;;2612869;54;20442;-74
2023/10/26 07:18:47;;;;;;;56.40;30.67;;;;;;;;;;2613336;54;20462;-74
2023/10/26 07:21:13;;;;;;;53.83;29.00;;;;;;;;;;2611972;47;20455;-75
2023/10/26 07:23:39;;;;;;;52.60;29.50;;;;;;;;;;2611571;54;21061;-74
2023/10/26 07:26:05;;;;;;;57.37;30.23;;;;;;;;;;2612467;51;20371;-76
2023/10/26 07:28:31;;;;;;;55.27;29.60;;;;;;;;;;2628804;36;20479;-76
2023/10/26 07:30:58;;;;;;;58.50;30.17;;;;;;;;;;2612529;54;21015;-75
2023/10/26 07:33:24;;;;;;;55.87;29.93;;;;;;;;;;2610865;54;20438;-75
2023/10/26 07:35:57;;;;;;;53.60;30.87;;;;;;;;;;2613070;54;20415;-75
2023/10/26 07:38:26;;;;;;;58.83;32.00;;;;;;;;;;2611933;47;20413;-74
2023/10/26 07:40:53;;;;;;;51.60;30.00;;;;;;;;;;2612774;46;20554;-74
2023/10/26 07:43:20;;;;;;;61.50;31.90;;;;;;;;;;2611802;47;21026;-74
2023/10/26 07:45:47;;;;;;;55.37;30.70;;;;;;;;;;2613676;46;20455;-75
2023/10/26 07:48:13;;;;;;;57.07;30.80;;;;;;;;;;2613569;54;20433;-75
2023/10/26 07:50:39;;;;;;;59.60;30.70;;;;;;;;;;2613271;54;20508;-76
2023/10/26 07:53:06;;;;;;;47.40;29.60;;;;;;;;;;2612872;47;20979;-75
2023/10/26 07:55:33;;;;;;;46.43;27.30;;;;;;;;;;2613109;54;20395;-75
2023/10/26 07:57:59;;;;;;;48.97;28.13;;;;;;;;;;2613003;54;20408;-75
2023/10/26 08:00:25;;;;;;;49.87;30.20;;;;;;;;;;2612310;54;20519;-75
2023/10/26 08:02:51;;;;;;;47.70;28.47;;;;;;;;;;2612257;39;20838;-74
2023/10/26 08:05:17;;;;;;;54.67;29.13;;;;;;;;;;2610790;54;21584;-75
2023/10/26 08:07:45;;;;;;;44.47;27.00;;;;;;;;;;2611507;47;20415;-75
2023/10/26 08:10:11;;;;;;;45.57;26.20;;;;;;;;;;2613037;54;20512;-75
2023/10/26 08:12:38;;;;;;;57.60;28.60;;;;;;;;;;2612324;54;20404;-74
2023/10/26 08:15:04;;;;;;;42.30;26.30;;;;;;;;;;2612787;54;20566;-75
2023/10/26 08:17:36;;;;;;;51.50;28.43;;;;;;;;;;2612106;54;20415;-75
2023/10/26 08:20:04;;;;;;;45.83;29.27;;;;;;;;;;2612764;54;21256;-75
2023/10/26 08:22:31;;;;;;;49.73;27.17;;;;;;;;;;2612664;54;20484;-73
2023/10/26 08:24:57;;;;;;;55.37;30.23;;;;;;;;;;2611892;46;20463;-74
2023/10/26 08:27:24;;;;;;;61.63;33.53;;;;;;;;;;2613186;54;20966;-74
2023/10/26 08:29:53;;;;;;;67.47;33.93;;;;;;;;;;2611960;54;20431;-73
2023/10/26 08:32:19;;;;;;;62.60;31.07;;;;;;;;;;2610862;47;21724;-73
2023/10/26 08:34:46;;;;;;;61.33;31.90;;;;;;;;;;2611809;39;20792;-73
2023/10/26 08:37:12;;;;;;;60.93;31.60;;;;;;;;;;2613232;54;20388;-75
2023/10/26 08:39:39;;;;;;;57.63;30.13;;;;;;;;;;2612307;47;20558;-73
2023/10/26 08:42:05;;;;;;;52.93;30.33;;;;;;;;;;2612744;54;20395;-75
2023/10/26 08:44:32;;;;;;;54.53;30.03;;;;;;;;;;2613636;54;20414;-75
2023/10/26 08:47:06;;;;;;;52.63;28.40;;;;;;;;;;2612164;54;20423;-75
2023/10/26 08:49:32;;;;;;;52.10;28.93;;;;;;;;;;2612387;54;20419;-75
2023/10/26 08:51:59;;;;;;;51.23;27.53;;;;;;;;;;2613028;39;20833;-75
2023/10/26 08:54:28;;;;;;;46.83;28.27;;;;;;;;;;2612208;47;20407;-74
2023/10/26 08:56:55;;;;;;;43.77;26.50;;;;;;;;;;2612721;54;21258;-75
2023/10/26 08:59:24;;;;;;;43.37;26.10;;;;;;;;;;2612511;39;20540;-75
2023/10/26 09:01:50;;;;;;;51.77;27.10;;;;;;;;;;2611953;54;20435;-75
2023/10/26 09:04:16;;;;;;;47.83;27.40;;;;;;;;;;2611583;39;20842;-76
2023/10/26 09:06:43;;;;;;;47.57;25.80;;;;;;;;;;2613074;39;21224;-74
2023/10/26 09:09:10;;;;;;;47.30;29.00;;;;;;;;;;2611611;54;20427;-75
2023/10/26 09:11:36;;;;;;;43.03;26.70;;;;;;;;;;2612134;47;20407;-75
2023/10/26 09:14:16;;;;;;;49.30;26.40;;;;;;;;;;2610813;51;20492;-75
2023/10/26 09:16:46;;;;;;;44.03;26.53;;;;;;;;;;2610493;54;20424;-75
2023/10/26 09:19:13;;;;;;;50.50;28.70;;;;;;;;;;2610566;39;21880;-75
2023/10/26 09:21:49;;;;;;;44.90;27.00;;;;;;;;;;2610286;54;20434;-75
2023/10/26 09:24:24;;;;;;;46.70;27.77;;;;;;;;;;2609532;54;20447;-75
2023/10/26 09:26:54;;;;;;;55.80;27.70;;;;;;;;;;2610340;54;20514;-75
2023/10/26 09:29:20;;;;;;;46.47;29.57;;;;;;;;;;2611007;54;20956;-76
2023/10/26 09:31:54;;;;;;;46.30;27.30;;;;;;;;;;2611491;54;20473;-73
2023/10/26 09:34:22;;;;;;;45.73;26.10;;;;;;;;;;2611221;46;20427;-74
2023/10/26 09:37:05;;;;;;;45.83;25.87;;;;;;;;;;2609893;47;20419;-73
2023/10/26 09:39:32;;;;;;;40.27;25.40;;;;;;;;;;2609393;54;20443;-73
2023/10/26 09:42:00;;;;;;;41.57;24.97;;;;;;;;;;2610041;54;20408;-75
2023/10/26 09:44:27;;;;;;;34.07;23.40;;;;;;;;;;2610513;54;20403;-74
2023/10/26 09:46:53;;;;;;;38.57;23.73;;;;;;;;;;2609910;54;20408;-74
2023/10/26 09:49:21;;;;;;;39.23;21.50;;;;;;;;;;2611075;54;20435;-74
2023/10/26 09:51:47;;;;;;;35.07;24.07;;;;;;;;;;2611636;54;20383;-76
2023/10/26 09:54:15;;;;;;;34.50;23.43;;;;;;;;;;2611783;47;20420;-76
2023/10/26 09:56:44;;;;;;;38.27;20.73;;;;;;;;;;2612673;54;20380;-75
2023/10/26 09:59:10;;;;;;;35.80;23.00;;;;;;;;;;2611750;54;20988;-75
2023/10/26 10:01:37;;;;;;;32.93;22.40;;;;;;;;;;2611272;54;20449;-74
2023/10/26 10:04:13;;;;;;;35.77;23.33;;;;;;;;;;2612541;54;20499;-76
2023/10/26 10:06:51;;;;;;;31.00;19.80;;;;;;;;;;2613678;54;20403;-75
2023/10/26 10:09:27;;;;;;;28.07;21.33;;;;;;;;;;2612830;47;20515;-74
2023/10/26 10:12:13;;;;;;;36.60;22.50;;;;;;;;;;2614093;54;20455;-75
2023/10/26 10:15:03;;;;;;;34.00;20.63;;;;;;;;;;2613309;47;20495;-76
2023/10/26 10:17:46;;;;;;;22.70;18.87;;;;;;;;;;2613192;47;20518;-75
2023/10/26 10:20:19;;;;;;;25.00;20.73;;;;;;;;;;2614494;39;20791;-76
2023/10/26 10:22:46;;;;;;;26.07;20.30;;;;;;;;;;2613921;54;20993;-75
2023/10/26 10:25:13;;;;;;;23.53;21.07;;;;;;;;;;2614305;54;20419;-76
2023/10/26 10:27:59;;;;;;;22.70;19.53;;;;;;;;;;2613317;54;20435;-76
2023/10/26 10:30:29;;;;;;;23.13;20.30;;;;;;;;;;2613655;54;20518;-77
2023/10/26 10:32:56;;;;;;;20.53;18.33;;;;;;;;;;2612476;54;20430;-76
2023/10/26 10:35:22;;;;;;;22.63;18.97;;;;;;;;;;2613168;39;21035;-76
2023/10/26 10:38:08;;;;;;;19.17;15.90;;;;;;;;;;2613050;39;20524;-76
2023/10/26 10:40:38;;;;;;;20.33;18.23;;;;;;;;;;2613790;54;20494;-76
2023/10/26 10:43:04;;;;;;;20.70;18.50;;;;;;;;;;2611653;54;20419;-76
2023/10/26 10:45:31;;;;;;;26.67;20.80;;;;;;;;;;2611800;54;20412;-75
2023/10/26 10:47:57;;;;;;;23.83;19.30;;;;;;;;;;2612531;54;20406;-76
2023/10/26 10:50:27;;;;;;;23.00;19.43;;;;;;;;;;2611669;47;20471;-75
2023/10/26 10:52:54;;;;;;;21.50;17.80;;;;;;;;;;2613223;54;20420;-75
2023/10/26 10:55:20;;;;;;;25.53;19.20;;;;;;;;;;2613912;46;20420;-76
2023/10/26 10:58:00;;;;;;;23.13;16.67;;;;;;;;;;2613569;54;20438;-76
2023/10/26 11:00:42;;;;;;;29.83;19.57;;;;;;;;;;2613906;54;21019;-75
2023/10/26 11:03:08;;;;;;;28.60;20.23;;;;;;;;;;2612133;31;20862;-73
2023/10/26 11:05:40;;;;;;;24.80;19.40;;;;;;;;;;2611757;39;20868;-72
2023/10/26 11:08:07;;;;;;;26.07;18.57;;;;;;;;;;2611790;54;20416;-75
2023/10/26 11:10:34;;;;;;;24.90;20.20;;;;;;;;;;2611474;54;20974;-73
2023/10/26 11:13:00;;;;;;;48.50;19.00;;;;;;;;;;2611683;54;20427;-74
2023/10/26 11:15:36;;;;;;;23.63;18.93;;;;;;;;;;2612036;54;20418;-73
2023/10/26 11:18:03;;;;;;;19.27;16.43;;;;;;;;;;2612362;54;20438;-74
2023/10/26 11:20:36;;;;;;;17.87;16.00;;;;;;;;;;2612511;39;20824;-72
2023/10/26 11:23:02;;;;;;;19.80;16.13;;;;;;;;;;2611934;54;20450;-75
2023/10/26 11:25:28;;;;;;;19.27;15.80;;;;;;;;;;2611057;54;20431;-76
2023/10/26 11:27:55;;;;;;;18.57;15.00;;;;;;;;;;2612478;54;20396;-72
2023/10/26 11:30:21;;;;;;;18.17;14.17;;;;;;;;;;2612804;54;20400;-73
2023/10/26 11:32:47;;;;;;;17.33;14.27;;;;;;;;;;2611431;47;20424;-73
2023/10/26 11:35:14;;;;;;;17.17;15.37;;;;;;;;;;2611275;54;20431;-73
2023/10/26 11:37:41;;;;;;;13.50;12.20;;;;;;;;;;2609399;54;20964;-73
2023/10/26 11:40:08;;;;;;;15.00;13.40;;;;;;;;;;2610326;47;20471;-72
2023/10/26 11:42:44;;;;;;;13.83;12.53;;;;;;;;;;2610949;47;20531;-73
2023/10/26 11:45:15;;;;;;;10.90;9.80;;;;;;;;;;2611825;39;20490;-73
2023/10/26 11:47:50;;;;;;;11.47;10.47;;;;;;;;;;2611004;39;20861;-72
2023/10/26 11:50:34;;;;;;;11.40;10.40;;;;;;;;;;2612863;54;20965;-75
2023/10/26 11:53:03;;;;;;;10.40;9.40;;;;;;;;;;2613093;54;20988;-75
2023/10/26 11:55:31;;;;;;;10.80;9.77;;;;;;;;;;2612236;54;20431;-76
2023/10/26 11:57:58;;;;;;;9.50;8.60;;;;;;;;;;2612459;54;20423;-76
2023/10/26 12:00:25;;;;;;;7.53;6.90;;;;;;;;;;2613565;54;20519;-75
2023/10/26 12:02:53;;;;;;;8.40;7.60;;;;;;;;;;2611674;54;20430;-75
2023/10/26 12:05:20;;;;;;;7.47;6.87;;;;;;;;;;2611957;54;20403;-75
2023/10/26 12:07:46;;;;;;;7.20;6.60;;;;;;;;;;2612178;54;20439;-76
2023/10/26 12:10:17;;;;;;;7.73;6.90;;;;;;;;;;2612757;54;20470;-75
2023/10/26 12:12:44;;;;;;;7.03;6.43;;;;;;;;;;2612480;54;20575;-75
2023/10/26 12:15:19;;;;;;;7.37;6.80;;;;;;;;;;2612154;46;20447;-75
2023/10/26 12:17:45;;;;;;;8.17;7.47;;;;;;;;;;2612233;54;20476;-75
2023/10/26 12:20:13;;;;;;;7.90;7.20;;;;;;;;;;2612066;47;20451;-75
2023/10/26 12:22:42;;;;;;;9.10;7.03;;;;;;;;;;2613371;39;20917;-75
2023/10/26 12:25:10;;;;;;;7.63;6.93;;;;;;;;;;2612747;47;20538;-75
2023/10/26 12:27:37;;;;;;;7.83;7.13;;;;;;;;;;2612561;54;20431;-75
2023/10/26 12:30:03;;;;;;;8.60;7.80;;;;;;;;;;2613210;54;20496;-75
2023/10/26 12:32:30;;;;;;;9.17;8.27;;;;;;;;;;2611389;54;20427;-76
2023/10/26 12:34:56;;;;;;;9.33;8.43;;;;;;;;;;2612637;54;20438;-76
2023/10/26 12:37:23;;;;;;;9.47;8.67;;;;;;;;;;2614039;54;20424;-75
2023/10/26 12:39:49;;;;;;;8.97;8.17;;;;;;;;;;2613323;47;20451;-75
2023/10/26 12:42:17;;;;;;;8.20;7.50;;;;;;;;;;2613537;54;20548;-75
2023/10/26 12:44:43;;;;;;;8.57;7.33;;;;;;;;;;2611241;54;20507;-75
2023/10/26 12:47:09;;;;;;;8.43;7.50;;;;;;;;;;2612551;54;20554;-75
2023/10/26 12:49:36;;;;;;;7.33;6.63;;;;;;;;;;2611889;54;21423;-75
2023/10/26 12:52:02;;;;;;;9.60;8.30;;;;;;;;;;2611109;54;20450;-75
2023/10/26 12:54:29;;;;;;;8.53;7.70;;;;;;;;;;2612320;47;21036;-76
2023/10/26 12:56:55;;;;;;;10.83;8.07;;;;;;;;;;2612245;54;20970;-75
2023/10/26 12:59:22;;;;;;;7.70;7.10;;;;;;;;;;2612194;54;20434;-76
2023/10/26 13:01:48;;;;;;;9.90;7.40;;;;;;;;;;2610263;47;21304;-76
2023/10/26 13:04:14;;;;;;;8.90;8.10;;;;;;;;;;2612702;54;20534;-76
2023/10/26 13:06:40;;;;;;;9.73;8.40;;;;;;;;;;2612051;54;20427;-76
2023/10/26 13:09:07;;;;;;;8.80;8.00;;;;;;;;;;2613096;54;20562;-76
2023/10/26 13:11:33;;;;;;;15.83;6.60;;;;;;;;;;2611773;39;28338;-73
2023/10/26 13:14:00;;;;;;;7.70;7.10;;;;;;;;;;2611746;54;20438;-74
2023/10/26 13:16:26;;;;;;;6.70;6.10;;;;;;;;;;2611378;54;20538;-73
2023/10/26 13:18:52;;;;;;;8.27;7.67;;;;;;;;;;2609136;39;20873;-72
2023/10/26 13:21:18;;;;;;;8.47;7.70;;;;;;;;;;2608788;54;20415;-75
2023/10/26 13:23:44;;;;;;;7.10;6.60;;;;;;;;;;2609970;54;20387;-74
2023/10/26 13:26:11;;;;;;;8.43;7.73;;;;;;;;;;2608208;54;20403;-72
2023/10/26 13:28:37;;;;;;;8.50;7.90;;;;;;;;;;2610862;54;20412;-75
2023/10/26 13:31:03;;;;;;;7.07;6.57;;;;;;;;;;2610791;47;20431;-73
2023/10/26 13:33:29;;;;;;;6.60;6.00;;;;;;;;;;2611174;54;20981;-72
2023/10/26 13:35:55;;;;;;;6.53;6.00;;;;;;;;;;2612053;54;20557;-73
2023/10/26 13:38:21;;;;;;;6.67;6.27;;;;;;;;;;2612058;54;20558;-74
2023/10/26 13:40:47;;;;;;;5.63;5.33;;;;;;;;;;2611260;47;20579;-74
2023/10/26 13:43:15;;;;;;;10.83;6.10;;;;;;;;;;2611625;54;20383;-72
2023/10/26 13:45:41;;;;;;;6.53;6.03;;;;;;;;;;2612290;54;20388;-74
2023/10/26 13:48:08;;;;;;;6.30;5.80;;;;;;;;;;2611882;54;21114;-74
2023/10/26 13:50:35;;;;;;;5.43;5.13;;;;;;;;;;2608658;54;20431;-74
2023/10/26 13:53:01;;;;;;;6.30;5.90;;;;;;;;;;2610476;54;20424;-74
2023/10/26 13:55:27;;;;;;;7.17;5.93;;;;;;;;;;2610779;47;20415;-74
2023/10/26 13:57:54;;;;;;;7.57;6.10;;;;;;;;;;2613157;31;20899;-73
2023/10/26 14:00:20;;;;;;;6.33;5.73;;;;;;;;;;2612216;47;20981;-75
2023/10/26 14:02:46;;;;;;;7.00;6.50;;;;;;;;;;2612081;47;20423;-75
2023/10/26 14:05:12;;;;;;;7.07;6.57;;;;;;;;;;2611766;47;20412;-74
2023/10/26 14:07:40;;;;;;;6.27;5.77;;;;;;;;;;2612243;47;20422;-72
2023/10/26 14:10:06;;;;;;;7.00;6.50;;;;;;;;;;2613406;54;20985;-75
2023/10/26 14:12:36;;;;;;;6.70;6.30;;;;;;;;;;2612629;47;20416;-74
2023/10/26 14:15:03;;;;;;;6.57;6.17;;;;;;;;;;2612572;54;20415;-74
2023/10/26 14:17:36;;;;;;;7.43;6.70;;;;;;;;;;2613709;54;20411;-74
2023/10/26 14:20:04;;;;;;;6.70;6.20;;;;;;;;;;2613014;52;20415;-73
2023/10/26 14:22:31;;;;;;;6.97;6.43;;;;;;;;;;2612940;54;20404;-75